Time;durP1;ratioP1;P1;durP2;ratioP2;P2;SDS_P1;SDS_P2;PMS_P1;PMS_P2;Temp;Humidity;BMP_temperature;BMP_pressure;BME280_temperature;BME280_humidity;BME280_pressure;Samples;Min_cycle;Max_cycle;Signal;HPM_P1;HPM_P2
2021/12/19 00:01:13;;;;;;;7.47;2.38;;;7.50;99.90;;;;;;5036952;28;20043;-81
2021/12/19 00:08:57;;;;;;;6.38;3.03;;;7.50;99.90;;;;;;5068648;28;20057;-82
2021/12/19 00:11:26;;;;;;;7.95;2.95;;;7.60;99.90;;;;;;5069867;28;20486;-83
2021/12/19 00:13:52;;;;;;;8.27;3.55;;;7.50;99.90;;;;;;5036375;28;20028;-82
2021/12/19 00:16:18;;;;;;;6.18;3.13;;;7.50;99.90;;;;;;5069850;28;20033;-83
2021/12/19 00:18:46;;;;;;;6.18;2.85;;;7.50;99.90;;;;;;5069513;28;20041;-83
2021/12/19 00:21:14;;;;;;;6.53;2.95;;;7.50;99.90;;;;;;5070127;28;20068;-83
2021/12/19 00:23:40;;;;;;;8.10;3.30;;;7.50;99.90;;;;;;5036564;28;20041;-82
2021/12/19 00:26:06;;;;;;;8.82;3.28;;;7.50;99.90;;;;;;5057354;28;20041;-82
2021/12/19 00:28:31;;;;;;;6.10;2.90;;;7.50;99.90;;;;;;5052816;28;20075;-83
2021/12/19 00:30:57;;;;;;;6.93;2.20;;;7.50;99.90;;;;;;5035912;28;20504;-83
2021/12/19 00:33:22;;;;;;;6.55;2.75;;;7.50;99.90;;;;;;5036570;28;20039;-83
2021/12/19 00:35:48;;;;;;;5.25;1.98;;;7.50;99.90;;;;;;5052530;28;20033;-82
2021/12/19 00:38:14;;;;;;;4.72;2.33;;;7.50;99.90;;;;;;5052803;28;20049;-83
2021/12/19 00:40:40;;;;;;;8.02;3.13;;;7.50;99.90;;;;;;5051879;28;20493;-83
2021/12/19 00:43:09;;;;;;;6.47;2.25;;;7.50;99.90;;;;;;5050370;28;20091;-82
2021/12/19 00:45:39;;;;;;;6.85;2.97;;;7.50;99.90;;;;;;5051162;28;20318;-82
2021/12/19 00:48:07;;;;;;;6.63;3.03;;;7.50;99.90;;;;;;5035982;28;20045;-83
2021/12/19 00:50:35;;;;;;;7.53;2.95;;;7.60;99.90;;;;;;5050267;28;20037;-84
2021/12/19 00:53:01;;;;;;;7.57;3.63;;;7.60;99.90;;;;;;5069104;28;20045;-84
2021/12/19 00:55:28;;;;;;;8.75;3.75;;;7.60;99.90;;;;;;5036010;28;20039;-83
2021/12/19 00:57:54;;;;;;;8.60;4.15;;;7.60;99.90;;;;;;5035413;28;20037;-83
2021/12/19 01:00:23;;;;;;;7.43;4.18;;;7.60;99.90;;;;;;5032709;28;20037;-81
2021/12/19 01:02:53;;;;;;;9.30;4.40;;;7.70;99.90;;;;;;5035250;28;20040;-83
2021/12/19 01:05:19;;;;;;;14.60;5.72;;;7.70;99.90;;;;;;5068390;28;20087;-82
2021/12/19 01:07:45;;;;;;;16.27;6.18;;;7.70;99.90;;;;;;5051881;28;20037;-82
2021/12/19 01:10:12;;;;;;;14.07;5.75;;;7.70;99.90;;;;;;5068869;28;20572;-83
2021/12/19 01:12:38;;;;;;;11.82;6.78;;;7.60;99.90;;;;;;5051008;28;20040;-83
2021/12/19 01:15:11;;;;;;;18.50;6.93;;;7.60;99.90;;;;;;5068619;28;20037;-83
2021/12/19 01:17:38;;;;;;;11.02;5.97;;;7.60;99.90;;;;;;5068493;28;20120;-83
2021/12/19 01:20:07;;;;;;;12.35;5.93;;;7.60;99.90;;;;;;5049714;28;20047;-83
2021/12/19 01:22:33;;;;;;;10.48;4.40;;;7.60;99.90;;;;;;5068524;28;20063;-82
2021/12/19 01:24:58;;;;;;;5.25;3.08;;;7.60;99.90;;;;;;5069369;28;20041;-84
2021/12/19 01:27:24;;;;;;;4.80;1.70;;;7.60;99.90;;;;;;5066386;28;20451;-83
2021/12/19 01:29:50;;;;;;;4.78;0.75;;;7.60;99.90;;;;;;5054043;28;20039;-82
2021/12/19 01:32:15;;;;;;;1.50;0.38;;;7.50;99.90;;;;;;5051034;28;20029;-82
2021/12/19 01:34:41;;;;;;;1.73;0.20;;;7.60;99.90;;;;;;5070815;28;20055;-84
2021/12/19 01:37:06;;;;;;;0.65;0.25;;;7.60;99.90;;;;;;5085346;28;20037;-82
2021/12/19 01:39:32;;;;;;;1.25;0.55;;;7.60;99.90;;;;;;5081904;28;20041;-84
2021/12/19 01:41:58;;;;;;;6.78;0.63;;;7.50;99.90;;;;;;5039767;28;20044;-84
2021/12/19 01:44:25;;;;;;;1.92;0.32;;;7.50;99.90;;;;;;5075595;28;20033;-83
2021/12/19 01:46:53;;;;;;;0.80;0.20;;;7.40;99.90;;;;;;5070700;28;20029;-85
2021/12/19 01:49:20;;;;;;;1.63;0.45;;;7.40;99.90;;;;;;5070678;28;20045;-83
2021/12/19 01:51:47;;;;;;;1.48;0.10;;;7.40;99.90;;;;;;5052697;28;20033;-84
2021/12/19 01:54:13;;;;;;;0.65;0.10;;;7.40;99.90;;;;;;5035619;28;20135;-83
2021/12/19 01:56:41;;;;;;;0.82;0.10;;;7.40;99.90;;;;;;5049267;28;20064;-84
2021/12/19 01:59:10;;;;;;;2.63;0.10;;;7.40;99.90;;;;;;5068697;28;20039;-83
2021/12/19 02:01:49;;;;;;;1.10;0.25;;;7.40;99.90;;;;;;5043342;28;20043;-84
2021/12/19 02:04:16;;;;;;;0.63;0.10;;;7.40;99.90;;;;;;5063602;28;20036;-84
2021/12/19 02:06:41;;;;;;;2.47;0.20;;;7.30;99.90;;;;;;5063241;28;20041;-84
2021/12/19 02:09:08;;;;;;;1.13;0.35;;;7.30;99.90;;;;;;5040251;28;20076;-83
2021/12/19 02:11:35;;;;;;;6.53;0.50;;;7.30;99.90;;;;;;5041832;28;20056;-84
2021/12/19 02:14:02;;;;;;;2.47;0.52;;;7.30;99.90;;;;;;5036681;28;20037;-85
2021/12/19 02:16:28;;;;;;;1.83;0.20;;;7.20;99.90;;;;;;5053928;28;20051;-83
2021/12/19 02:18:53;;;;;;;1.25;0.20;;;7.20;99.90;;;;;;5053516;28;20036;-83
2021/12/19 02:21:19;;;;;;;2.03;0.20;;;7.20;99.90;;;;;;5060863;28;20393;-83
2021/12/19 02:23:45;;;;;;;4.95;0.10;;;7.20;99.90;;;;;;5069213;28;20056;-84
2021/12/19 02:26:13;;;;;;;1.33;0.10;;;7.20;99.90;;;;;;5065921;28;20481;-83
2021/12/19 02:28:39;;;;;;;0.60;0.10;;;7.10;99.90;;;;;;5055167;28;20417;-83
2021/12/19 02:31:05;;;;;;;0.32;0.10;;;7.10;99.90;;;;;;5047891;28;20048;-84
2021/12/19 02:33:34;;;;;;;0.88;0.10;;;7.10;99.90;;;;;;5065658;28;20527;-83
2021/12/19 02:36:17;;;;;;;0.98;0.10;;;7.10;99.90;;;;;;5049067;28;20037;-84
2021/12/19 02:49:23;;;;;;;1.15;0.20;;;7.10;99.90;;;;;;5064057;28;20049;-85
2021/12/19 02:51:51;;;;;;;1.67;0.28;;;7.10;99.90;;;;;;5055816;28;20549;-83
2021/12/19 02:54:17;;;;;;;2.63;0.40;;;7.20;99.90;;;;;;5057424;28;20033;-85
2021/12/19 02:56:43;;;;;;;2.70;0.50;;;7.20;99.90;;;;;;5065819;28;20048;-84
2021/12/19 02:59:09;;;;;;;3.80;0.50;;;7.20;99.90;;;;;;5059074;28;20075;-85
2021/12/19 03:01:35;;;;;;;2.55;0.55;;;7.20;99.90;;;;;;5037964;28;20078;-84
2021/12/19 03:04:00;;;;;;;1.65;0.50;;;7.20;99.90;;;;;;5066701;28;20052;-84
2021/12/19 03:06:26;;;;;;;1.08;0.10;;;7.20;99.90;;;;;;5037380;28;20531;-84
2021/12/19 03:08:53;;;;;;;0.30;0.10;;;7.10;99.90;;;;;;5058547;28;20124;-85
2021/12/19 03:19:33;;;;;;;0.98;0.20;;;7.10;99.90;;;;;;5063246;28;20068;-84
2021/12/19 03:21:58;;;;;;;0.52;0.10;;;7.10;99.90;;;;;;5036365;28;20485;-85
2021/12/19 03:24:24;;;;;;;1.17;0.00;;;7.10;99.90;;;;;;5038419;28;20036;-85
2021/12/19 03:26:50;;;;;;;0.88;0.10;;;7.10;99.90;;;;;;5037886;28;20028;-83
2021/12/19 03:29:15;;;;;;;0.95;0.00;;;7.10;99.90;;;;;;5036391;28;20481;-83
2021/12/19 03:31:41;;;;;;;1.10;0.00;;;7.10;99.90;;;;;;5038992;28;20024;-84
2021/12/19 03:34:07;;;;;;;0.95;0.10;;;7.10;99.90;;;;;;5042634;28;20079;-84
2021/12/19 03:36:33;;;;;;;1.10;0.10;;;7.00;99.90;;;;;;5057195;28;20067;-84
2021/12/19 03:39:01;;;;;;;1.88;0.10;;;7.00;99.90;;;;;;5036125;28;20060;-85
2021/12/19 03:41:34;;;;;;;0.40;0.10;;;7.00;99.90;;;;;;5059340;28;20040;-84
2021/12/19 03:44:04;;;;;;;1.65;0.10;;;7.00;99.90;;;;;;5048281;28;20082;-83
2021/12/19 03:46:30;;;;;;;0.80;0.28;;;7.00;99.90;;;;;;5064360;28;20059;-84
2021/12/19 03:48:56;;;;;;;2.47;0.20;;;6.90;99.90;;;;;;5055703;28;20486;-84
2021/12/19 03:51:22;;;;;;;3.50;0.40;;;6.90;99.90;;;;;;5062278;28;20039;-84
2021/12/19 03:53:48;;;;;;;2.85;0.30;;;6.90;99.90;;;;;;5035733;28;20033;-84
2021/12/19 03:56:13;;;;;;;0.88;0.30;;;6.80;99.90;;;;;;5052206;28;20083;-84
2021/12/19 03:58:40;;;;;;;2.00;0.20;;;6.80;99.90;;;;;;5033914;28;20037;-85
2021/12/19 04:01:08;;;;;;;1.67;0.10;;;6.80;99.90;;;;;;5049926;28;20040;-84
2021/12/19 04:03:34;;;;;;;0.70;0.20;;;6.80;99.90;;;;;;5042237;28;20075;-84
2021/12/19 04:05:59;;;;;;;0.95;0.30;;;6.80;99.90;;;;;;5061942;28;20480;-84
2021/12/19 04:08:25;;;;;;;0.95;0.20;;;6.70;99.90;;;;;;5044846;28;20486;-84
2021/12/19 04:10:52;;;;;;;1.05;0.38;;;6.70;99.90;;;;;;5054332;28;20029;-84
2021/12/19 04:13:19;;;;;;;1.30;0.30;;;6.70;99.90;;;;;;5055272;28;20158;-84
2021/12/19 04:15:47;;;;;;;2.55;0.45;;;6.70;99.90;;;;;;5039394;28;20033;-84
2021/12/19 04:18:14;;;;;;;1.55;0.30;;;6.70;99.90;;;;;;5056491;28;20045;-84
2021/12/19 04:20:39;;;;;;;2.13;0.30;;;6.70;99.90;;;;;;5054974;28;20102;-84
2021/12/19 04:23:05;;;;;;;1.58;0.52;;;6.70;99.90;;;;;;5037198;28;20033;-83
2021/12/19 04:25:31;;;;;;;1.77;0.47;;;6.70;99.90;;;;;;5053393;28;20041;-84
2021/12/19 04:27:56;;;;;;;2.20;0.30;;;6.70;99.90;;;;;;5038038;28;20068;-84
2021/12/19 04:30:25;;;;;;;2.78;0.40;;;6.70;99.90;;;;;;5051913;28;20025;-84
2021/12/19 04:35:31;;;;;;;3.40;0.52;;;6.70;99.90;;;;;;5062301;28;20127;-84
2021/12/19 04:57:08;;;;;;;8.20;1.17;;;6.80;99.90;;;;;;5051113;28;20041;-83
2021/12/19 04:59:51;;;;;;;4.20;1.40;;;6.80;99.90;;;;;;5038474;28;20394;-84
2021/12/19 05:14:04;;;;;;;7.18;3.40;;;6.90;99.90;;;;;;5069686;28;20047;-83
2021/12/19 05:15:48;;;;;;;10.60;2.53;;;6.90;99.90;;;;;;5071057;28;20041;-84
2021/12/19 05:18:14;;;;;;;7.80;2.28;;;6.90;99.90;;;;;;5051467;28;20165;-84
2021/12/19 05:20:50;;;;;;;8.07;2.83;;;6.90;99.90;;;;;;5037022;28;20032;-84
2021/12/19 05:26:08;;;;;;;13.18;4.75;;;6.90;99.90;;;;;;5047476;28;20481;-83
2021/12/19 05:28:34;;;;;;;16.20;4.22;;;6.90;99.90;;;;;;5066214;28;20085;-84
2021/12/19 05:30:59;;;;;;;9.63;4.15;;;6.90;99.90;;;;;;5034010;28;20450;-83
2021/12/19 05:33:25;;;;;;;9.52;4.75;;;6.90;99.90;;;;;;5052107;28;20048;-83
2021/12/19 05:46:35;;;;;;;13.23;4.57;;;7.10;99.90;;;;;;5052946;28;20047;-83
2021/12/19 05:49:02;;;;;;;15.75;5.50;;;7.10;99.90;;;;;;5064978;28;20127;-82
2021/12/19 05:51:29;;;;;;;15.98;5.63;;;7.10;99.90;;;;;;5049713;28;20047;-83
2021/12/19 05:53:54;;;;;;;11.32;5.03;;;7.10;99.90;;;;;;5057587;28;20045;-84
2021/12/19 05:56:20;;;;;;;12.88;5.90;;;7.00;99.90;;;;;;5035715;28;20086;-84
2021/12/19 05:58:46;;;;;;;15.02;4.50;;;7.10;99.90;;;;;;5043016;28;20037;-83
2021/12/19 06:01:11;;;;;;;12.77;5.20;;;7.10;99.90;;;;;;5059411;28;20097;-83
2021/12/19 06:03:37;;;;;;;17.00;5.10;;;7.10;99.90;;;;;;5058148;28;20123;-84
2021/12/19 06:06:03;;;;;;;10.35;4.43;;;7.10;99.90;;;;;;5067648;28;20051;-83
2021/12/19 06:08:28;;;;;;;15.60;5.93;;;7.20;99.90;;;;;;5046782;28;20041;-83
2021/12/19 06:10:54;;;;;;;16.38;8.35;;;7.10;99.90;;;;;;5066914;28;20051;-83
2021/12/19 06:13:19;;;;;;;18.35;6.55;;;7.10;99.90;;;;;;5071840;28;20032;-83
2021/12/19 06:15:49;;;;;;;14.02;5.32;;;7.20;99.90;;;;;;5067723;28;20041;-84
2021/12/19 06:18:15;;;;;;;18.42;7.10;;;7.20;99.90;;;;;;5070220;28;20091;-84
2021/12/19 06:20:40;;;;;;;23.17;9.50;;;7.20;99.90;;;;;;5063037;28;20149;-84
2021/12/19 06:23:08;;;;;;;15.38;7.10;;;7.20;99.90;;;;;;5048129;28;20413;-83
2021/12/19 06:25:34;;;;;;;15.45;5.18;;;7.20;99.90;;;;;;5065641;28;20040;-85
2021/12/19 06:27:59;;;;;;;18.58;6.68;;;7.20;99.90;;;;;;5060842;28;20037;-83
2021/12/19 06:30:25;;;;;;;16.70;7.15;;;7.20;99.90;;;;;;5060147;28;20033;-83
2021/12/19 06:32:51;;;;;;;16.25;6.43;;;7.20;99.90;;;;;;5055733;28;20482;-84
2021/12/19 06:35:21;;;;;;;17.58;6.50;;;7.10;99.90;;;;;;5060562;28;20456;-84
2021/12/19 06:37:48;;;;;;;14.45;5.75;;;7.20;99.90;;;;;;5058357;28;20473;-85
2021/12/19 06:40:22;;;;;;;15.98;6.68;;;7.10;99.90;;;;;;5037648;28;20159;-83
2021/12/19 06:42:48;;;;;;;14.53;5.80;;;7.10;99.90;;;;;;5059975;28;20036;-84
2021/12/19 06:45:14;;;;;;;14.65;6.07;;;7.20;99.90;;;;;;5056928;28;20064;-84
2021/12/19 06:47:40;;;;;;;18.35;5.50;;;7.10;99.90;;;;;;5057565;28;20037;-84
2021/12/19 06:50:07;;;;;;;15.77;4.82;;;7.10;99.90;;;;;;5045978;28;20043;-83
2021/12/19 06:52:33;;;;;;;11.00;5.18;;;7.10;99.90;;;;;;5056781;28;20041;-84
2021/12/19 06:54:58;;;;;;;11.45;4.47;;;7.10;99.90;;;;;;5043567;28;20033;-84
2021/12/19 06:57:24;;;;;;;13.55;5.90;;;7.10;99.90;;;;;;5056672;28;20051;-84
2021/12/19 06:59:50;;;;;;;14.25;4.60;;;7.20;99.90;;;;;;5048755;28;20047;-83
2021/12/19 07:02:16;;;;;;;11.90;5.10;;;7.20;99.90;;;;;;5075245;28;20033;-84
2021/12/19 07:04:43;;;;;;;12.90;4.95;;;7.20;99.90;;;;;;5072503;28;20069;-84
2021/12/19 07:07:09;;;;;;;13.40;4.57;;;7.20;99.90;;;;;;5073860;28;20044;-83
2021/12/19 07:09:34;;;;;;;11.73;4.40;;;7.10;99.90;;;;;;5043256;28;20037;-84
2021/12/19 07:12:00;;;;;;;8.70;3.35;;;7.10;99.90;;;;;;5058741;28;20091;-84
2021/12/19 07:14:26;;;;;;;12.18;3.70;;;7.10;99.90;;;;;;5059058;28;20029;-84
2021/12/19 07:16:51;;;;;;;8.05;2.45;;;7.20;99.90;;;;;;5038908;28;20037;-84
2021/12/19 07:19:17;;;;;;;8.18;2.72;;;7.20;99.90;;;;;;5040014;28;20037;-83
2021/12/19 07:21:42;;;;;;;7.25;3.53;;;7.20;99.90;;;;;;5067732;28;20041;-84
2021/12/19 07:24:08;;;;;;;7.40;3.33;;;7.20;99.90;;;;;;5068224;28;20044;-84
2021/12/19 07:26:34;;;;;;;11.98;3.10;;;7.20;99.90;;;;;;5038566;28;20079;-84
2021/12/19 07:28:59;;;;;;;13.10;3.70;;;7.20;99.90;;;;;;5045576;28;20091;-84
2021/12/19 07:31:29;;;;;;;10.38;3.15;;;7.20;99.90;;;;;;5070772;28;20043;-84
2021/12/19 07:33:54;;;;;;;12.07;3.40;;;7.20;99.90;;;;;;5065082;28;20044;-84
2021/12/19 07:36:24;;;;;;;14.05;3.75;;;7.20;99.90;;;;;;5040097;28;20029;-84
2021/12/19 07:39:04;;;;;;;10.55;2.58;;;7.10;99.90;;;;;;5042819;28;20051;-82
2021/12/19 07:41:30;;;;;;;9.68;2.88;;;7.20;99.90;;;;;;5051616;28;20037;-84
2021/12/19 07:43:56;;;;;;;8.07;3.17;;;7.20;99.90;;;;;;5062707;28;20094;-83
2021/12/19 07:46:22;;;;;;;9.18;2.20;;;7.20;99.90;;;;;;5082895;28;20163;-82
2021/12/19 07:48:47;;;;;;;8.35;3.40;;;7.20;99.90;;;;;;5073375;28;20037;-84
2021/12/19 07:51:13;;;;;;;6.97;3.28;;;7.20;99.90;;;;;;5065269;28;20033;-83
2021/12/19 07:53:39;;;;;;;10.43;2.50;;;7.20;99.90;;;;;;5040620;28;20486;-83
2021/12/19 07:56:04;;;;;;;10.82;2.28;;;7.20;99.90;;;;;;5053273;28;20401;-82
2021/12/19 07:58:30;;;;;;;8.52;2.85;;;7.20;99.90;;;;;;5038686;28;20099;-83
2021/12/19 08:00:56;;;;;;;16.38;3.72;;;7.20;99.90;;;;;;5045745;28;20648;-84
2021/12/19 08:03:21;;;;;;;10.25;2.50;;;7.20;99.90;;;;;;5062742;28;20041;-83
2021/12/19 08:05:48;;;;;;;7.50;2.83;;;7.20;99.90;;;;;;5054646;28;20037;-83
2021/12/19 08:08:17;;;;;;;10.15;3.08;;;7.20;99.90;;;;;;5052773;28;20132;-83
2021/12/19 08:13:09;;;;;;;14.90;5.65;;;7.20;99.90;;;;;;5056136;28;20495;-83
2021/12/19 08:15:36;;;;;;;7.53;2.83;;;7.20;99.90;;;;;;5062789;28;20071;-81
2021/12/19 08:18:03;;;;;;;9.25;3.40;;;7.20;99.90;;;;;;5067395;28;20491;-83
2021/12/19 08:20:29;;;;;;;15.43;5.00;;;7.20;99.90;;;;;;5064960;28;20037;-83
2021/12/19 08:22:55;;;;;;;10.48;4.20;;;7.20;99.90;;;;;;5041798;28;20036;-84
2021/12/19 08:25:23;;;;;;;11.77;4.22;;;7.20;99.90;;;;;;5058798;28;20029;-84
2021/12/19 08:27:49;;;;;;;11.02;3.42;;;7.20;99.90;;;;;;5072834;28;20032;-84
2021/12/19 08:30:16;;;;;;;14.23;3.53;;;7.20;99.90;;;;;;5067403;28;20048;-83
2021/12/19 08:32:42;;;;;;;12.95;3.35;;;7.20;99.90;;;;;;5064452;28;20029;-84
2021/12/19 08:35:09;;;;;;;11.05;3.47;;;7.20;99.90;;;;;;5042855;28;20043;-83
2021/12/19 08:37:35;;;;;;;11.02;3.08;;;7.20;99.90;;;;;;5067961;28;20499;-83
2021/12/19 08:40:00;;;;;;;13.07;3.78;;;7.20;99.90;;;;;;5052530;28;20041;-83
2021/12/19 08:42:28;;;;;;;10.15;2.25;;;7.20;99.90;;;;;;5056670;28;20131;-83
2021/12/19 08:44:53;;;;;;;14.95;3.17;;;7.20;99.90;;;;;;5062346;28;20037;-84
2021/12/19 08:47:19;;;;;;;17.65;3.83;;;7.20;99.90;;;;;;5067701;28;20405;-83
2021/12/19 08:49:45;;;;;;;10.70;2.72;;;7.20;99.90;;;;;;5063048;28;20447;-83
2021/12/19 08:52:11;;;;;;;10.48;3.53;;;7.20;99.90;;;;;;5062656;28;20086;-83
2021/12/19 08:54:37;;;;;;;11.52;2.50;;;7.20;99.90;;;;;;5067330;28;20035;-83
2021/12/19 08:57:03;;;;;;;8.65;2.83;;;7.20;99.90;;;;;;5060599;28;20132;-82
2021/12/19 08:59:29;;;;;;;12.05;2.45;;;7.30;99.90;;;;;;5054077;28;20068;-84
2021/12/19 09:01:58;;;;;;;11.27;1.75;;;7.30;99.90;;;;;;5038192;28;20037;-84
2021/12/19 09:04:24;;;;;;;13.70;2.33;;;7.30;99.90;;;;;;5039380;28;20120;-84
2021/12/19 09:06:50;;;;;;;10.90;2.75;;;7.30;99.90;;;;;;5055113;28;20083;-84
2021/12/19 09:09:16;;;;;;;7.32;2.42;;;7.30;99.90;;;;;;5054929;28;20037;-84
2021/12/19 09:11:42;;;;;;;13.10;2.00;;;7.40;99.90;;;;;;5054695;28;20048;-83
2021/12/19 09:14:07;;;;;;;9.25;1.90;;;7.30;99.90;;;;;;5037274;28;20101;-83
2021/12/19 09:16:33;;;;;;;9.75;2.35;;;7.40;99.90;;;;;;5041941;28;20100;-84
2021/12/19 09:18:58;;;;;;;7.60;2.70;;;7.40;99.90;;;;;;5059183;28;20128;-83
2021/12/19 09:21:24;;;;;;;8.95;2.95;;;7.40;99.90;;;;;;5036314;28;20056;-83
2021/12/19 09:23:50;;;;;;;7.43;1.67;;;7.40;99.90;;;;;;5037805;28;20041;-84
2021/12/19 09:26:16;;;;;;;9.38;3.10;;;7.40;99.90;;;;;;5069817;28;20107;-82
2021/12/19 09:28:42;;;;;;;7.90;2.60;;;7.40;99.90;;;;;;5052190;28;20516;-83
2021/12/19 09:31:07;;;;;;;11.23;2.45;;;7.40;99.90;;;;;;5035540;28;20033;-83
2021/12/19 09:33:33;;;;;;;10.68;1.95;;;7.40;99.90;;;;;;5036270;28;20041;-82
2021/12/19 09:35:59;;;;;;;11.93;2.58;;;7.40;99.90;;;;;;5036409;28;20110;-82
2021/12/19 09:38:25;;;;;;;9.75;2.60;;;7.50;99.90;;;;;;5037495;28;20115;-83
2021/12/19 09:40:58;;;;;;;10.02;2.15;;;7.50;99.90;;;;;;5053457;28;20163;-82
2021/12/19 09:43:41;;;;;;;11.95;3.03;;;7.50;99.90;;;;;;5053244;28;20091;-83
2021/12/19 09:46:11;;;;;;;7.93;3.05;;;7.50;99.90;;;;;;5048679;28;20040;-82
2021/12/19 09:48:39;;;;;;;11.35;3.58;;;7.50;99.90;;;;;;5069782;28;20409;-82
2021/12/19 09:51:05;;;;;;;9.18;2.53;;;7.50;99.90;;;;;;5035868;28;20067;-83
2021/12/19 09:53:31;;;;;;;13.18;3.40;;;7.50;99.90;;;;;;5052000;28;20033;-82
2021/12/19 09:55:57;;;;;;;9.25;2.17;;;7.50;99.90;;;;;;5053563;28;20043;-83
2021/12/19 09:58:22;;;;;;;47.15;23.20;;;7.60;99.90;;;;;;5036817;28;20079;-83
2021/12/19 10:00:48;;;;;;;183.13;119.78;;;7.60;99.90;;;;;;5053329;28;20033;-82
2021/12/19 10:03:16;;;;;;;27.15;14.05;;;7.60;99.90;;;;;;5054259;28;20032;-82
2021/12/19 10:05:41;;;;;;;329.63;195.40;;;7.70;99.90;;;;;;5052362;28;20073;-83
2021/12/19 10:08:08;;;;;;;51.15;20.48;;;7.70;99.90;;;;;;5036469;28;20064;-82
2021/12/19 10:10:53;;;;;;;17.38;7.43;;;7.70;99.90;;;;;;5053365;28;20472;-83
2021/12/19 10:13:33;;;;;;;12.43;2.35;;;7.70;99.90;;;;;;5053786;28;20029;-83
2021/12/19 10:15:59;;;;;;;6.63;1.55;;;7.70;99.90;;;;;;5065595;28;20041;-83
2021/12/19 10:18:25;;;;;;;12.90;3.03;;;7.70;99.90;;;;;;5035366;28;20036;-82
2021/12/19 10:20:59;;;;;;;6.18;2.15;;;7.80;99.90;;;;;;5052208;28;20106;-83
2021/12/19 10:23:28;;;;;;;7.70;2.00;;;7.80;99.90;;;;;;5068459;28;20401;-82
2021/12/19 10:26:00;;;;;;;10.55;3.10;;;7.80;99.90;;;;;;5050799;28;20463;-83
2021/12/19 10:28:27;;;;;;;12.02;2.22;;;7.80;99.90;;;;;;5034856;28;20056;-83
2021/12/19 10:30:52;;;;;;;8.85;2.45;;;7.80;99.90;;;;;;5033681;28;20061;-83
2021/12/19 10:33:24;;;;;;;14.75;2.65;;;7.80;99.90;;;;;;5051024;28;20090;-83
2021/12/19 10:35:53;;;;;;;10.15;2.35;;;7.80;99.90;;;;;;5033527;28;20040;-83
2021/12/19 10:38:34;;;;;;;4.88;0.88;;;7.80;99.90;;;;;;5034048;28;20397;-83
2021/12/19 10:41:02;;;;;;;11.30;2.72;;;7.80;99.90;;;;;;5033238;28;20094;-83
2021/12/19 10:43:31;;;;;;;10.90;2.50;;;7.80;99.90;;;;;;5032569;28;20552;-83
2021/12/19 10:46:00;;;;;;;7.43;1.70;;;7.70;99.90;;;;;;5050355;28;20044;-83
2021/12/19 10:48:27;;;;;;;5.88;1.75;;;7.70;99.90;;;;;;5032759;28;20048;-82
2021/12/19 10:51:00;;;;;;;7.65;1.73;;;7.80;99.90;;;;;;5035511;28;20045;-82
2021/12/19 10:53:33;;;;;;;4.45;0.93;;;7.90;99.90;;;;;;5051514;28;20457;-82
2021/12/19 10:56:00;;;;;;;11.65;0.95;;;7.90;99.90;;;;;;5033842;28;20044;-83
2021/12/19 10:58:33;;;;;;;8.57;1.48;;;7.90;99.90;;;;;;5066735;28;20037;-82
2021/12/19 11:01:04;;;;;;;4.18;0.70;;;7.90;99.90;;;;;;5033557;28;20037;-83
2021/12/19 11:03:55;;;;;;;8.68;1.48;;;7.90;99.90;;;;;;5051595;28;20044;-82
2021/12/19 11:06:34;;;;;;;14.30;2.20;;;7.90;99.90;;;;;;5034460;28;20481;-82
2021/12/19 11:09:08;;;;;;;9.90;1.88;;;7.90;99.90;;;;;;5051647;28;20041;-82
2021/12/19 11:11:33;;;;;;;12.43;1.63;;;7.90;99.90;;;;;;5034858;28;20041;-82
2021/12/19 11:13:59;;;;;;;8.75;1.38;;;8.00;99.90;;;;;;5053062;28;20103;-82
2021/12/19 11:16:26;;;;;;;10.98;3.78;;;8.00;99.90;;;;;;5077911;28;20043;-82
2021/12/19 11:18:52;;;;;;;12.77;1.65;;;8.00;99.90;;;;;;5072882;28;20040;-83
2021/12/19 11:21:18;;;;;;;4.80;1.05;;;8.00;99.90;;;;;;5034535;28;1034926;-83
2021/12/19 11:23:45;;;;;;;6.95;1.15;;;8.00;99.90;;;;;;5035523;28;20040;-82
2021/12/19 11:26:11;;;;;;;9.55;1.10;;;8.00;99.90;;;;;;5035159;28;20040;-82
2021/12/19 11:28:37;;;;;;;6.32;1.23;;;8.00;99.90;;;;;;5049202;28;20033;-82
2021/12/19 11:31:04;;;;;;;5.63;0.57;;;8.00;99.90;;;;;;5064317;28;20040;-80
2021/12/19 11:33:58;;;;;;;7.30;1.50;;;8.00;99.90;;;;;;5056563;28;20032;-81
2021/12/19 11:36:25;;;;;;;8.70;2.22;;;8.10;99.90;;;;;;5070242;28;20104;-81
2021/12/19 11:38:52;;;;;;;5.78;1.08;;;8.10;99.90;;;;;;5072512;28;20037;-80
2021/12/19 11:41:18;;;;;;;9.38;0.85;;;8.10;99.90;;;;;;5089556;28;20049;-81
2021/12/19 11:43:45;;;;;;;5.82;1.00;;;8.10;99.90;;;;;;5069390;28;20053;-81
2021/12/19 11:46:18;;;;;;;5.32;1.15;;;8.20;99.90;;;;;;5074891;28;20029;-81
2021/12/19 11:48:44;;;;;;;10.82;2.22;;;8.20;99.90;;;;;;5077638;28;20040;-81
2021/12/19 11:51:19;;;;;;;4.25;1.15;;;8.20;99.90;;;;;;5079081;28;20084;-80
2021/12/19 11:53:46;;;;;;;6.97;1.52;;;8.20;99.90;;;;;;5079107;28;20029;-80
2021/12/19 11:56:18;;;;;;;14.30;1.98;;;8.20;99.90;;;;;;5079363;28;20032;-81
2021/12/19 11:58:49;;;;;;;6.53;0.68;;;8.20;99.90;;;;;;5061279;28;20048;-82
2021/12/19 12:01:21;;;;;;;7.25;1.77;;;8.30;99.90;;;;;;5060309;28;20037;-81
2021/12/19 12:03:49;;;;;;;9.00;2.10;;;8.30;99.90;;;;;;5086019;28;20141;-83
2021/12/19 12:06:19;;;;;;;13.68;1.23;;;8.30;99.90;;;;;;5046747;28;20043;-83
2021/12/19 12:09:03;;;;;;;10.73;1.58;;;8.20;99.90;;;;;;5048223;28;20067;-83
2021/12/19 12:11:29;;;;;;;8.48;1.55;;;8.20;99.90;;;;;;5047120;28;20045;-81
2021/12/19 12:14:23;;;;;;;10.45;1.40;;;8.20;99.90;;;;;;5076795;28;20051;-82
2021/12/19 12:16:59;;;;;;;8.52;1.67;;;8.20;99.90;;;;;;5076392;28;20060;-82
2021/12/19 12:19:43;;;;;;;7.75;1.70;;;8.20;99.90;;;;;;5075692;28;20098;-82
2021/12/19 12:22:45;;;;;;;8.35;2.20;;;8.20;99.90;;;;;;5041024;28;20045;-82
2021/12/19 12:25:42;;;;;;;19.17;3.25;;;8.20;99.90;;;;;;5076602;28;20041;-81
2021/12/19 12:28:09;;;;;;;6.50;1.80;;;8.20;99.90;;;;;;5037380;28;20133;-83
2021/12/19 12:30:54;;;;;;;10.68;1.30;;;8.20;99.90;;;;;;5087414;28;20071;-81
2021/12/19 12:33:25;;;;;;;4.85;1.33;;;8.30;99.90;;;;;;5075852;28;20036;-82
2021/12/19 12:35:52;;;;;;;8.25;1.98;;;8.20;99.90;;;;;;5056305;28;20044;-82
2021/12/19 12:38:19;;;;;;;8.40;1.40;;;8.20;99.90;;;;;;5052125;28;20037;-83
2021/12/19 12:41:04;;;;;;;10.57;2.25;;;8.20;99.90;;;;;;5067390;28;20036;-83
2021/12/19 12:43:33;;;;;;;16.83;2.42;;;8.20;99.90;;;;;;5044687;28;20037;-82
2021/12/19 12:46:13;;;;;;;12.45;2.47;;;8.20;99.90;;;;;;5058119;28;20387;-83
2021/12/19 12:48:52;;;;;;;9.43;1.90;;;8.20;99.90;;;;;;5042016;28;20120;-82
2021/12/19 12:51:35;;;;;;;11.77;2.13;;;8.20;99.90;;;;;;5058491;28;20103;-84
2021/12/19 12:54:18;;;;;;;11.40;2.35;;;8.20;99.90;;;;;;5040673;28;20069;-82
2021/12/19 12:56:53;;;;;;;12.82;1.90;;;8.30;99.90;;;;;;5057406;28;20033;-81
2021/12/19 12:59:31;;;;;;;7.82;2.15;;;8.20;99.90;;;;;;5057742;28;20103;-82
2021/12/19 13:02:12;;;;;;;8.35;2.00;;;8.20;99.90;;;;;;5040403;28;20041;-83
2021/12/19 13:04:41;;;;;;;16.05;2.45;;;8.20;99.90;;;;;;5039841;28;20043;-82
2021/12/19 13:07:21;;;;;;;13.30;2.55;;;8.20;99.90;;;;;;5040208;28;20044;-83
2021/12/19 13:10:00;;;;;;;8.45;1.98;;;8.20;99.90;;;;;;5057406;28;20072;-82
2021/12/19 13:12:31;;;;;;;9.88;1.80;;;8.20;99.90;;;;;;5073490;28;20553;-82
2021/12/19 13:15:09;;;;;;;11.88;2.00;;;8.10;99.90;;;;;;5073670;28;20554;-83
2021/12/19 13:17:35;;;;;;;18.17;2.95;;;8.10;99.90;;;;;;5038916;28;20478;-82
2021/12/19 13:20:08;;;;;;;13.65;3.20;;;8.10;99.90;;;;;;5039616;28;20045;-83
2021/12/19 13:22:47;;;;;;;14.82;2.40;;;8.00;99.90;;;;;;5038795;28;20048;-83
2021/12/19 13:25:22;;;;;;;9.27;2.45;;;8.00;99.90;;;;;;5039056;28;20044;-84
2021/12/19 13:27:54;;;;;;;14.10;2.70;;;8.00;99.90;;;;;;5039124;28;20048;-83
2021/12/19 13:30:29;;;;;;;13.05;2.25;;;8.00;99.90;;;;;;5056704;28;20045;-82
2021/12/19 13:33:03;;;;;;;16.10;2.20;;;8.00;99.90;;;;;;5038753;28;20421;-82
2021/12/19 13:35:32;;;;;;;13.15;3.05;;;8.10;99.90;;;;;;5038516;28;20052;-83
2021/12/19 13:38:16;;;;;;;12.30;1.50;;;8.10;99.90;;;;;;5071685;28;20121;-83
2021/12/19 13:40:48;;;;;;;11.82;3.33;;;8.20;99.90;;;;;;5055440;28;20044;-82
2021/12/19 13:43:17;;;;;;;10.38;1.58;;;8.20;99.90;;;;;;5039292;28;20043;-82
2021/12/19 13:46:08;;;;;;;9.65;2.33;;;8.30;99.90;;;;;;5038947;28;20240;-83
2021/12/19 13:48:49;;;;;;;8.85;1.83;;;8.30;99.90;;;;;;5038055;28;20076;-82
2021/12/19 13:51:14;;;;;;;11.05;2.20;;;8.30;99.90;;;;;;5037809;28;20087;-83
2021/12/19 13:53:53;;;;;;;11.90;2.80;;;8.30;99.90;;;;;;5039316;28;20041;-81
2021/12/19 13:56:27;;;;;;;14.77;2.63;;;8.30;99.90;;;;;;5055904;28;20055;-82
2021/12/19 13:58:56;;;;;;;35.85;14.77;;;8.30;99.90;;;;;;5038842;28;20049;-82
2021/12/19 14:01:28;;;;;;;36.38;13.98;;;8.30;99.90;;;;;;5038471;28;20045;-83
2021/12/19 14:03:59;;;;;;;25.90;10.50;;;8.20;99.90;;;;;;5038363;28;20044;-81
2021/12/19 14:06:31;;;;;;;14.63;3.97;;;8.20;99.90;;;;;;5073165;28;20053;-80
2021/12/19 14:09:06;;;;;;;18.40;6.60;;;8.20;99.90;;;;;;5070703;28;20090;-80
2021/12/19 14:11:34;;;;;;;333.77;238.30;;;8.20;99.90;;;;;;5056645;28;20047;-80
2021/12/19 14:14:10;;;;;;;15.35;5.65;;;8.20;99.90;;;;;;5035853;28;20033;-80